Timbuktu, Mali
Current Conditions -  °F | °C
As of 7:00 AM on Tuesday 27 Jan 2015 (Local Time) from DFFD Reporting Station
Clear Clear  
Wind Chill: 68°   Ceiling: Unl
Heat Index: 68°   Visibility: 5mi
Dew Point: 23°   Wind: 7mph
Humidity: 18%   Direction: 10°N
Pressure: 29.97"   Gusts: NA
Location:  16.78°N, 3.01°W
Report Text: DFFD 270700Z 01006KT 8000 NSC 20/M05 Q1015 TEMPO 4000 HZ
Loading
Personal Weather Stations






























Interactive Weather Map New forecast layout! Learn more

10-Day Weather Forecast

Advertisements
Track Severe Weather on mobile